Terminal Aerodrome Forecast
Issued by NWS

Home | Current Version | Previous Version | Text Only | Print | Product List | Glossary On
Versions: 1 2 3 4 5 6 7 8 9 10 11 12 13 14 15 16
000
FTUS41 KPHI 050537
TAFMIV
TAF
KMIV 050537Z 0506/0606 06008KT P6SM BKN025
      TEMPO 0506/0510 SCT025
     FM051000 06008KT P6SM BKN015
     FM051400 07010KT P6SM BKN025
     FM051600 08010KT P6SM BKN035
     FM051900 09008KT P6SM SCT045
     FM060200 VRB03KT P6SM SKC=

USA.gov is the U.S. government's official web portal to all federal, state and local government web resources and services.